createdAt,value
2022-12-27T00:01:38.586Z,0.30
2022-12-27T00:03:44.814Z,0.50
2022-12-27T00:05:52.819Z,0.40
2022-12-27T00:07:58.915Z,0.63
2022-12-27T00:10:05.379Z,0.70
2022-12-27T00:12:11.457Z,0.82
2022-12-27T00:14:17.105Z,0.65
2022-12-27T00:16:24.321Z,0.40
2022-12-27T00:18:29.682Z,0.43
2022-12-27T00:20:35.231Z,0.60
2022-12-27T00:22:43.692Z,0.60
2022-12-27T00:24:49.561Z,0.47
2022-12-27T00:26:55.053Z,0.50
2022-12-27T00:29:01.523Z,0.22
2022-12-27T00:31:08.524Z,0.40
2022-12-27T00:33:13.815Z,0.60
2022-12-27T00:35:19.079Z,0.70
2022-12-27T00:37:24.431Z,0.60
2022-12-27T00:39:32.423Z,0.30
2022-12-27T00:41:37.805Z,0.40
2022-12-27T00:43:43.431Z,0.50
2022-12-27T00:45:49.393Z,0.30
2022-12-27T00:47:54.785Z,0.70
2022-12-27T00:50:00.037Z,0.52
2022-12-27T00:52:05.340Z,0.38
2022-12-27T00:54:10.643Z,0.50
2022-12-27T00:56:22.215Z,0.50
2022-12-27T00:58:28.274Z,0.60
2022-12-27T01:00:34.208Z,0.60
2022-12-27T01:02:40.768Z,0.35
2022-12-27T01:04:46.429Z,0.50
2022-12-27T01:06:51.856Z,0.60
2022-12-27T01:08:57.425Z,0.40
2022-12-27T01:11:02.957Z,0.82
2022-12-27T01:13:11.977Z,0.50
2022-12-27T01:15:17.447Z,0.40
2022-12-27T01:17:22.740Z,0.70
2022-12-27T01:19:28.167Z,0.43
2022-12-27T01:21:33.566Z,0.47
2022-12-27T01:23:39.442Z,0.57
2022-12-27T01:25:44.866Z,0.40
2022-12-27T01:27:50.051Z,0.38
2022-12-27T01:29:57.873Z,0.50
2022-12-27T01:32:03.355Z,0.30
2022-12-27T01:34:08.914Z,0.45
2022-12-27T01:36:17.878Z,0.50
2022-12-27T01:38:23.188Z,0.40
2022-12-27T01:40:28.974Z,0.40
2022-12-27T01:42:46.582Z,0.40
2022-12-27T01:45:00.958Z,0.60
2022-12-27T01:47:08.682Z,0.45
2022-12-27T01:49:15.339Z,0.35
2022-12-27T01:51:21.985Z,0.50
2022-12-27T01:53:32.647Z,0.50
2022-12-27T01:55:45.975Z,0.40
2022-12-27T01:57:53.888Z,0.40
2022-12-27T02:00:02.364Z,1.08
2022-12-27T02:02:11.188Z,0.57
2022-12-27T02:04:23.649Z,0.50
2022-12-27T02:06:32.138Z,0.30
2022-12-27T02:08:50.290Z,0.43
2022-12-27T02:10:57.763Z,0.60
2022-12-27T02:13:04.125Z,0.45
2022-12-27T02:15:13.270Z,0.30
2022-12-27T02:17:23.195Z,0.40
2022-12-27T02:19:44.292Z,0.50
2022-12-27T02:22:55.752Z,0.93
2022-12-27T02:25:30.229Z,0.60
2022-12-27T02:28:08.803Z,0.50
2022-12-27T02:30:17.196Z,0.40
2022-12-27T02:32:33.342Z,0.65
2022-12-27T02:34:48.274Z,0.50
2022-12-27T02:36:59.221Z,0.43
2022-12-27T02:39:06.718Z,0.50
2022-12-27T02:41:27.981Z,0.60
2022-12-27T02:43:46.537Z,1.08
2022-12-27T02:46:21.685Z,0.70
2022-12-27T02:48:39.956Z,0.60
2022-12-27T02:51:16.224Z,0.60
2022-12-27T02:53:35.346Z,0.65
2022-12-27T02:56:22.595Z,0.50
2022-12-27T02:58:39.023Z,0.80
2022-12-27T03:01:11.370Z,1.08
2022-12-27T03:03:57.344Z,0.50
2022-12-27T03:06:39.979Z,0.50
2022-12-27T03:08:55.128Z,0.40
2022-12-27T03:11:17.668Z,0.40
2022-12-27T03:13:47.999Z,0.63
2022-12-27T03:16:18.656Z,0.47
2022-12-27T03:18:52.094Z,0.68
2022-12-27T03:21:13.543Z,0.60
2022-12-27T03:23:32.945Z,0.50
2022-12-27T03:25:41.773Z,0.80
2022-12-27T03:28:11.843Z,0.88
2022-12-27T03:30:30.279Z,0.57
2022-12-27T03:33:02.927Z,0.57
2022-12-27T03:35:16.665Z,0.50
2022-12-27T03:37:40.723Z,0.60
2022-12-27T03:39:50.223Z,0.70
2022-12-27T03:42:18.409Z,0.80
2022-12-27T03:44:29.941Z,0.80
2022-12-27T03:46:35.554Z,0.80
2022-12-27T03:48:59.629Z,0.60
2022-12-27T03:51:09.103Z,0.82
2022-12-27T03:53:20.974Z,0.60
2022-12-27T03:55:33.177Z,0.52
2022-12-27T03:57:39.482Z,0.50
2022-12-27T03:59:45.515Z,0.80
2022-12-27T04:01:51.104Z,0.80
2022-12-27T04:03:59.503Z,0.85
2022-12-27T04:06:04.739Z,0.60
2022-12-27T04:08:22.407Z,0.50
2022-12-27T04:10:40.285Z,0.73
2022-12-27T04:12:58.206Z,0.80
2022-12-27T04:15:15.874Z,0.95
2022-12-27T04:17:33.677Z,0.68
2022-12-27T04:19:55.779Z,0.57
2022-12-27T04:22:13.492Z,0.60
2022-12-27T04:24:31.192Z,0.65
2022-12-27T04:26:48.933Z,0.60
2022-12-27T04:29:06.591Z,0.63
2022-12-27T04:31:24.454Z,0.90
2022-12-27T04:33:42.183Z,0.63
2022-12-27T04:35:50.201Z,0.63
2022-12-27T04:37:55.476Z,0.60
2022-12-27T04:40:13.015Z,0.82
2022-12-27T04:42:30.592Z,0.80
2022-12-27T04:44:48.343Z,0.70
2022-12-27T04:47:06.190Z,0.60
2022-12-27T04:49:30.103Z,0.65
2022-12-27T04:51:50.441Z,0.70
2022-12-27T04:54:08.177Z,0.52
2022-12-27T04:56:13.375Z,1.17
2022-12-27T04:58:18.834Z,0.95
2022-12-27T05:00:39.735Z,0.60
2022-12-27T05:02:42.503Z,0.60
2022-12-27T05:04:50.637Z,0.52
2022-12-27T05:07:19.574Z,0.63
2022-12-27T05:09:37.420Z,0.60
2022-12-27T05:11:55.097Z,0.70
2022-12-27T05:14:03.556Z,0.60
2022-12-27T05:16:09.909Z,0.73
2022-12-27T05:18:15.364Z,0.70
2022-12-27T05:20:20.793Z,0.80
2022-12-27T05:22:41.302Z,0.77
2022-12-27T05:24:58.803Z,0.77
2022-12-27T05:27:04.050Z,0.68
2022-12-27T05:29:11.207Z,1.05
2022-12-27T05:31:16.995Z,0.90
2022-12-27T05:33:22.513Z,0.65
2022-12-27T05:35:27.864Z,0.80
2022-12-27T05:37:35.682Z,0.95
2022-12-27T05:39:41.112Z,1.00
2022-12-27T05:41:46.374Z,1.77
2022-12-27T05:43:52.050Z,1.60
2022-12-27T05:45:58.752Z,1.10
2022-12-27T05:48:04.204Z,0.90
2022-12-27T05:50:10.913Z,1.45
2022-12-27T05:52:16.191Z,1.00
2022-12-27T05:54:23.923Z,0.70
2022-12-27T05:56:29.187Z,1.80
2022-12-27T05:58:35.677Z,1.52
2022-12-27T06:00:40.982Z,1.58
2022-12-27T06:02:46.412Z,1.30
2022-12-27T06:04:51.876Z,1.63
2022-12-27T06:06:57.068Z,2.20
2022-12-27T06:09:02.261Z,2.35
2022-12-27T06:11:14.281Z,1.85
2022-12-27T06:13:19.666Z,4.68
2022-12-27T06:15:24.983Z,3.17
2022-12-27T06:17:30.357Z,1.70
2022-12-27T06:19:35.866Z,1.65
2022-12-27T06:21:41.190Z,1.35
2022-12-27T06:23:48.660Z,1.40
2022-12-27T06:25:53.954Z,2.95
2022-12-27T06:28:02.206Z,4.53
2022-12-27T06:30:12.221Z,3.95
2022-12-27T06:32:17.893Z,2.50
2022-12-27T06:34:23.511Z,2.85
2022-12-27T06:36:30.403Z,2.40
2022-12-27T06:38:35.883Z,1.77
2022-12-27T06:40:41.300Z,1.85
2022-12-27T06:42:46.483Z,1.60
2022-12-27T06:44:54.342Z,1.50
2022-12-27T06:46:59.901Z,1.83
2022-12-27T06:49:05.419Z,2.05
2022-12-27T06:51:14.830Z,1.58
2022-12-27T06:53:20.043Z,2.08
2022-12-27T06:55:25.381Z,2.45
2022-12-27T06:57:30.601Z,3.70
2022-12-27T06:59:37.019Z,3.17
2022-12-27T07:01:45.606Z,2.70
2022-12-27T07:03:53.415Z,2.60
2022-12-27T07:05:58.632Z,2.25
2022-12-27T07:08:03.883Z,3.22
2022-12-27T07:10:10.777Z,3.30
2022-12-27T07:12:16.031Z,3.40
2022-12-27T07:14:21.482Z,4.68
2022-12-27T07:16:31.460Z,3.53
2022-12-27T07:18:39.632Z,3.15
2022-12-27T07:22:59.107Z,2.63
2022-12-27T07:25:05.044Z,2.40
2022-12-27T07:27:11.493Z,2.28
2022-12-27T07:29:17.463Z,2.50
2022-12-27T07:31:26.661Z,1.95
2022-12-27T07:33:32.688Z,2.33
2022-12-27T07:35:45.088Z,3.10
2022-12-27T07:37:50.773Z,4.30
2022-12-27T07:39:56.368Z,4.15
2022-12-27T07:42:07.894Z,3.90
2022-12-27T07:44:16.494Z,3.05
2022-12-27T07:46:24.435Z,3.20
2022-12-27T07:48:31.640Z,1.85
2022-12-27T07:50:39.889Z,1.90
2022-12-27T07:52:45.375Z,2.17
2022-12-27T07:54:50.848Z,1.88
2022-12-27T07:56:56.450Z,3.55
2022-12-27T07:59:04.827Z,2.65
2022-12-27T08:01:12.019Z,2.63
2022-12-27T08:03:18.688Z,2.65
2022-12-27T08:05:27.709Z,1.85
2022-12-27T08:07:36.658Z,1.90
2022-12-27T08:09:45.048Z,2.70
2022-12-27T08:11:50.467Z,2.53
2022-12-27T08:13:55.735Z,2.25
2022-12-27T08:16:01.530Z,2.25
2022-12-27T08:18:07.582Z,2.72
2022-12-27T08:20:17.566Z,2.63
2022-12-27T08:22:24.199Z,2.38
2022-12-27T08:24:32.542Z,2.13
2022-12-27T08:26:38.584Z,1.83
2022-12-27T08:28:44.917Z,1.58
2022-12-27T08:30:50.582Z,2.10
2022-12-27T08:32:55.981Z,1.80
2022-12-27T08:35:18.299Z,1.55
2022-12-27T08:37:26.703Z,1.30
2022-12-27T08:39:34.618Z,1.35
2022-12-27T08:41:40.067Z,1.70
2022-12-27T08:43:45.731Z,1.73
2022-12-27T08:45:51.393Z,1.42
2022-12-27T08:48:01.289Z,1.40
2022-12-27T08:50:07.496Z,1.50
2022-12-27T08:52:12.967Z,1.90
2022-12-27T08:54:18.793Z,2.65
2022-12-27T08:56:26.832Z,3.72
2022-12-27T08:58:32.153Z,3.00
2022-12-27T09:00:37.403Z,3.47
2022-12-27T09:02:43.138Z,2.03
2022-12-27T09:04:48.630Z,2.97
2022-12-27T09:06:54.558Z,1.88
2022-12-27T09:09:01.551Z,1.73
2022-12-27T09:11:16.226Z,1.70
2022-12-27T09:13:24.107Z,1.30
2022-12-27T09:15:29.435Z,1.42
2022-12-27T09:17:34.831Z,1.10
2022-12-27T09:19:40.892Z,1.30
2022-12-27T09:21:46.833Z,1.70
2022-12-27T09:23:54.213Z,1.45
2022-12-27T09:25:59.528Z,1.30
2022-12-27T09:28:04.804Z,1.70
2022-12-27T09:30:14.207Z,1.80
2022-12-27T09:32:19.764Z,1.90
2022-12-27T09:34:25.773Z,1.33
2022-12-27T09:36:33.298Z,1.42
2022-12-27T09:38:40.616Z,1.10
2022-12-27T09:40:56.701Z,1.20
2022-12-27T09:43:21.017Z,1.17
2022-12-27T09:45:40.815Z,1.40
2022-12-27T09:47:57.808Z,1.45
2022-12-27T09:50:08.932Z,1.35
2022-12-27T09:52:24.210Z,1.30
2022-12-27T09:54:38.313Z,1.80
2022-12-27T09:57:18.389Z,1.92
2022-12-27T09:59:28.581Z,1.40
2022-12-27T10:01:40.683Z,1.33
2022-12-27T10:06:03.579Z,1.20
2022-12-27T10:08:33.426Z,1.52
2022-12-27T10:10:50.024Z,1.27
2022-12-27T10:13:16.386Z,1.48
2022-12-27T10:15:31.374Z,1.25
2022-12-27T10:17:53.681Z,1.10
2022-12-27T10:20:20.903Z,1.30
2022-12-27T10:22:36.962Z,2.22
2022-12-27T10:24:48.862Z,1.13
2022-12-27T10:26:58.284Z,1.92
2022-12-27T10:29:16.279Z,2.10
2022-12-27T10:31:25.644Z,1.23
2022-12-27T10:33:38.125Z,1.38
2022-12-27T10:35:43.403Z,1.42
2022-12-27T10:37:50.645Z,1.15
2022-12-27T10:39:56.118Z,1.02
2022-12-27T10:42:16.997Z,1.50
2022-12-27T10:44:22.422Z,1.77
2022-12-27T10:46:33.381Z,1.23
2022-12-27T10:49:11.413Z,1.40
2022-12-27T10:51:13.143Z,1.35
2022-12-27T10:54:00.682Z,1.20
2022-12-27T10:56:28.329Z,1.10
2022-12-27T10:58:42.898Z,1.10
2022-12-27T11:00:58.017Z,1.30
2022-12-27T11:03:03.481Z,1.00
2022-12-27T11:05:26.867Z,1.27
2022-12-27T11:07:35.588Z,0.80
2022-12-27T11:09:50.210Z,1.40
2022-12-27T11:12:15.054Z,1.42
2022-12-27T11:14:23.387Z,1.20
2022-12-27T11:16:35.038Z,1.20
2022-12-27T11:18:48.741Z,1.25
2022-12-27T11:21:01.234Z,0.63
2022-12-27T11:23:14.316Z,1.08
2022-12-27T11:25:19.942Z,1.00
2022-12-27T11:27:29.495Z,1.35
2022-12-27T11:29:37.454Z,1.50
2022-12-27T11:31:48.621Z,1.65
2022-12-27T11:33:57.457Z,1.00
2022-12-27T11:36:05.873Z,1.13
2022-12-27T11:38:26.888Z,0.90
2022-12-27T11:40:35.989Z,1.10
2022-12-27T11:42:48.322Z,0.60
2022-12-27T11:45:08.530Z,0.90
2022-12-27T11:47:34.735Z,1.10
2022-12-27T11:49:47.245Z,0.80
2022-12-27T11:52:43.759Z,0.70
2022-12-27T11:55:31.196Z,1.08
2022-12-27T11:58:05.754Z,1.00
2022-12-27T12:00:21.921Z,0.90
2022-12-27T12:02:44.289Z,1.65
2022-12-27T12:05:34.474Z,1.10
2022-12-27T12:08:34.572Z,0.80
2022-12-27T12:10:55.091Z,0.73
2022-12-27T12:13:43.286Z,0.68
2022-12-27T12:16:29.216Z,0.98
2022-12-27T12:19:03.214Z,0.73
2022-12-27T12:21:28.599Z,0.90
2022-12-27T12:24:09.333Z,0.90
2022-12-27T12:26:21.484Z,0.70
2022-12-27T12:29:05.348Z,0.90
2022-12-27T12:31:30.087Z,0.73
2022-12-27T12:34:06.378Z,0.70
2022-12-27T12:36:43.937Z,0.45
2022-12-27T12:39:04.624Z,0.70
2022-12-27T12:41:52.680Z,0.70
2022-12-27T12:45:02.831Z,1.00
2022-12-27T12:47:33.314Z,0.93
2022-12-27T12:50:17.609Z,0.70
2022-12-27T12:52:52.359Z,0.82
2022-12-27T12:55:33.379Z,0.68
2022-12-27T12:57:58.836Z,0.80
2022-12-27T13:00:32.774Z,0.52
2022-12-27T13:03:41.927Z,0.82
2022-12-27T13:05:56.500Z,0.88
2022-12-27T13:08:16.922Z,0.75
2022-12-27T13:11:02.750Z,0.80
2022-12-27T13:13:18.833Z,0.93
2022-12-27T13:15:42.217Z,0.70
2022-12-27T13:18:05.437Z,0.80
2022-12-27T13:20:37.996Z,1.80
2022-12-27T13:23:03.019Z,2.42
2022-12-27T13:25:28.180Z,2.92
2022-12-27T13:27:46.863Z,2.55
2022-12-27T13:30:16.887Z,5.13
2022-12-27T13:32:40.428Z,3.25
2022-12-27T13:37:22.276Z,1.52
2022-12-27T13:39:49.628Z,1.27
2022-12-27T13:42:19.665Z,1.27
2022-12-27T13:44:50.174Z,1.40
2022-12-27T13:47:41.589Z,0.90
2022-12-27T13:50:26.377Z,0.60
2022-12-27T13:53:00.055Z,0.77
2022-12-27T13:55:46.762Z,0.95
2022-12-27T13:58:29.195Z,0.80
2022-12-27T14:00:48.528Z,1.20
2022-12-27T14:03:55.259Z,0.88
2022-12-27T14:06:33.489Z,1.40
2022-12-27T14:09:13.417Z,1.02
2022-12-27T14:11:40.504Z,1.00
2022-12-27T14:13:47.741Z,1.40
2022-12-27T14:16:28.396Z,1.27
2022-12-27T14:18:58.343Z,1.70
2022-12-27T14:21:40.711Z,2.10
2022-12-27T14:24:11.229Z,1.45
2022-12-27T14:27:14.396Z,1.90
2022-12-27T14:30:07.788Z,1.90
2022-12-27T14:33:07.034Z,1.50
2022-12-27T14:35:48.644Z,1.38
2022-12-27T14:38:46.465Z,2.17
2022-12-27T14:41:51.696Z,2.60
2022-12-27T14:44:52.422Z,2.58
2022-12-27T14:47:57.806Z,2.70
2022-12-27T14:51:32.727Z,3.38
2022-12-27T14:54:34.419Z,3.67
2022-12-27T14:56:53.865Z,9.50
2022-12-27T14:59:22.129Z,9.85
2022-12-27T15:01:52.079Z,9.93
2022-12-27T15:04:10.432Z,8.98
2022-12-27T15:06:32.869Z,11.30
2022-12-27T15:09:06.997Z,7.20
2022-12-27T15:11:48.421Z,4.32
2022-12-27T15:14:15.183Z,3.22
2022-12-27T15:16:34.164Z,2.80
2022-12-27T15:19:00.300Z,3.53
2022-12-27T15:21:26.979Z,3.35
2022-12-27T15:23:49.817Z,4.70
2022-12-27T15:26:14.605Z,5.50
2022-12-27T15:28:34.481Z,19.33
2022-12-27T15:30:53.036Z,18.42
2022-12-27T15:33:11.677Z,11.93
2022-12-27T15:35:52.631Z,8.63
2022-12-27T15:38:09.188Z,5.43
2022-12-27T15:40:45.746Z,3.72
2022-12-27T15:43:05.332Z,5.00
2022-12-27T15:45:30.551Z,6.38
2022-12-27T15:48:03.175Z,7.97
2022-12-27T15:50:42.466Z,7.65
2022-12-27T15:53:13.156Z,5.85
2022-12-27T15:55:38.062Z,6.22
2022-12-27T15:58:08.082Z,5.35
2022-12-27T16:00:34.277Z,10.38
2022-12-27T16:02:53.684Z,8.35
2022-12-27T16:05:05.561Z,7.63
2022-12-27T16:07:43.088Z,11.43
2022-12-27T16:09:48.955Z,7.03
2022-12-27T16:12:05.166Z,3.90
2022-12-27T16:14:34.673Z,3.10
2022-12-27T16:16:58.535Z,3.13
2022-12-27T16:19:20.178Z,2.95
2022-12-27T16:21:27.859Z,2.65
2022-12-27T16:23:37.908Z,2.38
2022-12-27T16:25:46.000Z,4.32
2022-12-27T16:27:59.378Z,7.45
2022-12-27T16:32:22.759Z,13.35
2022-12-27T16:34:34.136Z,17.45
2022-12-27T16:36:46.085Z,14.63
2022-12-27T16:39:16.262Z,11.70
2022-12-27T16:41:45.854Z,12.95
2022-12-27T16:44:18.337Z,19.30
2022-12-27T16:47:00.758Z,15.38
2022-12-27T16:49:42.194Z,13.77
2022-12-27T16:52:10.902Z,9.88
2022-12-27T16:54:37.518Z,6.00
2022-12-27T16:56:48.342Z,4.47
2022-12-27T16:58:54.762Z,4.53
2022-12-27T17:01:03.076Z,2.50
2022-12-27T17:03:46.741Z,2.70
2022-12-27T17:06:29.936Z,3.17
2022-12-27T17:08:22.533Z,3.13
2022-12-27T17:10:57.346Z,3.38
2022-12-27T17:13:13.668Z,3.08
2022-12-27T17:15:19.711Z,4.05
2022-12-27T17:17:27.139Z,3.22
2022-12-27T17:19:42.033Z,4.05
2022-12-27T17:21:49.366Z,4.03
2022-12-27T17:24:42.703Z,2.65
2022-12-27T17:27:25.299Z,2.40
2022-12-27T17:30:17.890Z,2.17
2022-12-27T17:32:47.521Z,1.90
2022-12-27T17:35:07.515Z,2.30
2022-12-27T17:50:18.519Z,5.30
2022-12-27T17:52:42.320Z,9.63
2022-12-27T17:55:00.586Z,8.75
2022-12-27T17:57:20.184Z,6.38
2022-12-27T17:59:49.825Z,4.55
2022-12-27T18:01:57.876Z,7.65
2022-12-27T18:04:08.078Z,6.15
2022-12-27T18:06:21.422Z,3.40
2022-12-27T18:10:39.962Z,8.88
2022-12-27T18:12:56.673Z,9.05
2022-12-27T18:15:07.048Z,10.35
2022-12-27T18:17:29.307Z,9.43
2022-12-27T18:19:35.899Z,8.95
2022-12-27T18:21:59.393Z,9.00
2022-12-27T18:26:15.752Z,8.60
2022-12-27T18:28:30.480Z,12.20
2022-12-27T18:30:45.546Z,14.40
2022-12-27T18:32:51.185Z,14.43
2022-12-27T18:35:03.196Z,13.48
2022-12-27T18:37:16.374Z,10.77
2022-12-27T18:39:35.258Z,10.30
2022-12-27T18:41:56.368Z,8.30
2022-12-27T18:44:04.786Z,9.10
2022-12-27T18:46:11.409Z,11.80
2022-12-27T18:48:21.287Z,15.70
2022-12-27T18:50:30.821Z,10.40
2022-12-27T18:52:45.366Z,8.48
2022-12-27T18:54:53.250Z,10.30
2022-12-27T18:57:00.111Z,9.38
2022-12-27T18:59:09.018Z,9.15
2022-12-27T19:01:39.919Z,8.95
2022-12-27T19:03:45.534Z,8.95
2022-12-27T19:06:10.339Z,9.40
2022-12-27T19:08:24.547Z,10.38
2022-12-27T19:10:33.743Z,8.98
2022-12-27T19:12:42.274Z,9.07
2022-12-27T19:14:49.489Z,8.50
2022-12-27T19:20:25.099Z,8.32
2022-12-27T19:30:58.154Z,4.78
2022-12-27T19:33:16.849Z,5.93
2022-12-27T19:35:23.870Z,6.05
2022-12-27T19:37:31.103Z,6.93
2022-12-27T19:39:40.949Z,6.00
2022-12-27T19:41:46.552Z,5.70
2022-12-27T19:43:52.715Z,6.32
2022-12-27T19:45:58.442Z,5.90
2022-12-27T19:48:11.348Z,5.60
2022-12-27T19:50:16.885Z,5.78
2022-12-27T19:52:26.847Z,5.50
2022-12-27T19:54:33.563Z,5.95
2022-12-27T19:56:39.094Z,6.47
2022-12-27T19:58:44.750Z,6.07
2022-12-27T20:00:50.501Z,6.93
2022-12-27T20:02:56.617Z,6.22
2022-12-27T20:05:04.823Z,6.43
2022-12-27T20:07:14.427Z,6.20
2022-12-27T20:09:22.503Z,6.20
2022-12-27T20:11:29.342Z,5.72
2022-12-27T20:13:35.694Z,5.22
2022-12-27T20:15:44.309Z,4.93
2022-12-27T20:17:51.331Z,5.68
2022-12-27T20:19:56.730Z,6.97
2022-12-27T20:22:05.423Z,6.53
2022-12-27T20:24:13.995Z,5.97
2022-12-27T20:26:23.838Z,6.45
2022-12-27T20:28:29.532Z,8.52
2022-12-27T20:30:35.993Z,8.57
2022-12-27T20:32:41.769Z,8.38
2022-12-27T20:34:50.852Z,8.07
2022-12-27T20:36:58.285Z,7.40
2022-12-27T20:39:07.420Z,7.72
2022-12-27T20:41:16.446Z,7.90
2022-12-27T20:43:22.296Z,8.35
2022-12-27T20:45:28.275Z,8.75
2022-12-27T20:47:34.147Z,7.88
2022-12-27T20:49:40.235Z,10.02
2022-12-27T20:51:45.875Z,10.48
2022-12-27T20:53:57.183Z,10.52
2022-12-27T20:56:06.516Z,11.07
2022-12-27T20:58:12.068Z,9.93
2022-12-27T21:00:19.083Z,9.43
2022-12-27T21:02:24.682Z,10.30
2022-12-27T21:04:30.442Z,9.88
2022-12-27T21:06:35.888Z,10.27
2022-12-27T21:08:47.830Z,10.25
2022-12-27T21:10:54.952Z,10.80
2022-12-27T21:13:03.215Z,9.80
2022-12-27T21:15:11.008Z,10.60
2022-12-27T21:17:16.719Z,10.68
2022-12-27T21:19:22.144Z,11.10
2022-12-27T21:21:29.989Z,11.43
2022-12-27T21:23:37.019Z,11.55
2022-12-27T21:25:42.499Z,10.52
2022-12-27T21:27:48.699Z,10.93
2022-12-27T21:29:57.190Z,10.40
2022-12-27T21:32:03.386Z,12.35
2022-12-27T21:34:09.534Z,12.55
2022-12-27T21:36:24.724Z,12.68
2022-12-27T21:38:31.648Z,11.38
2022-12-27T21:40:37.397Z,12.52
2022-12-27T21:42:43.008Z,11.57
2022-12-27T21:44:48.473Z,11.50
2022-12-27T21:46:56.549Z,9.45
2022-12-27T21:49:04.998Z,9.68
2022-12-27T21:51:13.820Z,8.68
2022-12-27T21:53:21.012Z,9.23
2022-12-27T21:55:26.362Z,9.15
2022-12-27T21:57:31.758Z,7.53
2022-12-27T21:59:37.306Z,7.78
2022-12-27T22:01:50.306Z,8.10
2022-12-27T22:04:01.682Z,8.10
2022-12-27T22:06:14.092Z,7.35
2022-12-27T22:08:19.485Z,7.72
2022-12-27T22:10:24.984Z,8.50
2022-12-27T22:12:30.619Z,10.43
2022-12-27T22:14:37.182Z,8.10
2022-12-27T22:16:43.437Z,9.27
2022-12-27T22:18:50.068Z,8.80
2022-12-27T22:21:02.921Z,9.07
2022-12-27T22:23:08.688Z,9.27
2022-12-27T22:25:14.361Z,8.82
2022-12-27T22:27:20.337Z,7.95
2022-12-27T22:29:31.567Z,9.45
2022-12-27T22:31:42.989Z,7.70
2022-12-27T22:33:49.274Z,8.48
2022-12-27T22:36:04.272Z,7.93
2022-12-27T22:38:09.934Z,7.95
2022-12-27T22:40:40.742Z,8.35
2022-12-27T22:42:41.956Z,7.20
2022-12-27T22:44:47.433Z,8.02
2022-12-27T22:49:19.594Z,6.68
2022-12-27T22:51:31.311Z,8.85
2022-12-27T22:53:40.436Z,8.27
2022-12-27T22:55:49.173Z,6.82
2022-12-27T22:57:55.706Z,7.07
2022-12-27T23:00:01.620Z,7.25
2022-12-27T23:02:07.698Z,7.20
2022-12-27T23:04:16.211Z,7.28
2022-12-27T23:06:23.214Z,8.13
2022-12-27T23:08:31.384Z,6.88
2022-12-27T23:10:37.011Z,6.95
2022-12-27T23:12:42.765Z,6.22
2022-12-27T23:14:48.328Z,6.60
2022-12-27T23:16:53.993Z,6.75
2022-12-27T23:18:59.397Z,7.13
2022-12-27T23:21:21.556Z,6.72
2022-12-27T23:23:32.637Z,7.43
2022-12-27T23:25:39.157Z,7.35
2022-12-27T23:27:44.620Z,7.05
2022-12-27T23:29:49.937Z,7.05
2022-12-27T23:31:56.120Z,7.65
2022-12-27T23:34:02.390Z,7.05
2022-12-27T23:36:08.415Z,8.07
2022-12-27T23:38:13.730Z,7.15
2022-12-27T23:40:21.699Z,7.78
2022-12-27T23:42:27.244Z,6.15
2022-12-27T23:44:34.855Z,6.85
2022-12-27T23:46:40.412Z,8.82
2022-12-27T23:48:47.109Z,7.65
2022-12-27T23:50:52.489Z,7.53
2022-12-27T23:52:58.034Z,61.63
2022-12-27T23:55:03.453Z,24.48
2022-12-27T23:57:22.203Z,11.10
2022-12-27T23:59:28.729Z,12.10
